Terminal Aerodrome Forecast
Issued by NWS

Home | Current Version | Previous Version | Text Only | Print | Product List | Glossary On
Versions: 1 2 3 4 5 6 7 8 9 10 11 12 13 14 15 16 17 18 19 20 21 22 23
000
FTUS43 KGLD 210520
TAFMCK
TAF
KMCK 210520Z 2106/2206 10008KT P6SM OVC100
     FM210900 10006KT P6SM VCSH OVC070
     FM211200 09009KT P6SM -RA OVC030
     FM211400 09011KT P6SM -RA OVC020
     FM211700 08013KT P6SM -RA OVC035
     FM212000 07010KT P6SM VCSH OVC030
     FM212100 06009KT P6SM VCSH OVC035
     FM220000 05008KT P6SM OVC050
     FM220300 02005KT P6SM OVC050=

USA.gov is the U.S. government's official web portal to all federal, state and local government web resources and services.